createdAt,value
2022-12-16T00:04:39.505Z,18.45
2022-12-16T00:10:01.482Z,18.39
2022-12-16T00:15:23.249Z,18.35
2022-12-16T00:20:50.008Z,18.31
2022-12-16T00:26:14.276Z,18.26
2022-12-16T00:31:36.188Z,18.23
2022-12-16T00:36:57.990Z,18.18
2022-12-16T00:42:19.677Z,18.15
2022-12-16T00:47:43.895Z,18.12
2022-12-16T00:53:06.326Z,18.09
2022-12-16T00:58:28.084Z,18.07
2022-12-16T01:03:49.847Z,18.03
2022-12-16T01:09:12.175Z,18.00
2022-12-16T01:14:36.901Z,17.97
2022-12-16T01:19:58.676Z,17.93
2022-12-16T01:25:20.414Z,17.90
2022-12-16T01:30:42.121Z,17.88
2022-12-16T01:36:06.661Z,17.84
2022-12-16T01:41:28.351Z,17.81
2022-12-16T01:46:53.951Z,17.79
2022-12-16T01:52:21.999Z,17.77
2022-12-16T01:57:55.029Z,17.75
2022-12-16T02:03:17.017Z,17.72
2022-12-16T02:08:38.708Z,17.69
2022-12-16T02:14:03.151Z,17.69
2022-12-16T02:19:30.698Z,17.66
2022-12-16T02:25:01.155Z,17.65
2022-12-16T02:30:50.928Z,17.62
2022-12-16T02:36:24.480Z,17.58
2022-12-16T02:41:57.700Z,17.56
2022-12-16T02:47:19.536Z,17.53
2022-12-16T02:52:44.527Z,17.51
2022-12-16T02:58:24.298Z,17.51
2022-12-16T03:04:00.681Z,17.49
2022-12-16T03:09:28.690Z,17.46
2022-12-16T03:14:54.091Z,17.43
2022-12-16T03:20:23.094Z,17.42
2022-12-16T03:25:47.920Z,17.40
2022-12-16T03:31:35.993Z,17.39
2022-12-16T03:37:02.551Z,17.37
2022-12-16T03:42:25.042Z,17.35
2022-12-16T03:47:51.222Z,17.33
2022-12-16T03:53:12.995Z,17.30
2022-12-16T03:58:35.624Z,17.29
2022-12-16T04:03:57.498Z,17.28
2022-12-16T04:09:20.801Z,17.26
2022-12-16T04:15:01.265Z,17.23
2022-12-16T04:20:51.009Z,17.21
2022-12-16T04:26:13.017Z,17.18
2022-12-16T04:31:34.862Z,17.16
2022-12-16T04:37:17.982Z,17.14
2022-12-16T04:42:57.818Z,17.11
2022-12-16T04:48:38.140Z,17.08
2022-12-16T04:54:18.505Z,17.05
2022-12-16T04:59:58.757Z,17.04
2022-12-16T05:05:39.306Z,17.00
2022-12-16T05:11:19.503Z,16.99
2022-12-16T05:17:00.141Z,16.97
2022-12-16T05:22:40.692Z,16.95
2022-12-16T05:28:21.293Z,16.95
2022-12-16T05:34:01.466Z,16.92
2022-12-16T05:39:41.910Z,16.92
2022-12-16T05:45:22.571Z,16.90
2022-12-16T05:51:02.525Z,16.89
2022-12-16T05:56:42.944Z,16.88
2022-12-16T06:02:23.537Z,16.87
2022-12-16T06:08:12.273Z,16.96
2022-12-16T06:13:52.227Z,17.44
2022-12-16T06:19:32.508Z,18.14
2022-12-16T06:25:12.611Z,18.88
2022-12-16T06:30:52.968Z,19.50
2022-12-16T06:36:33.391Z,19.99
2022-12-16T06:42:13.336Z,20.16
2022-12-16T06:47:53.797Z,20.12
2022-12-16T06:53:34.768Z,19.97
2022-12-16T06:59:14.900Z,19.78
2022-12-16T07:04:54.892Z,19.55
2022-12-16T07:10:35.381Z,19.34
2022-12-16T07:16:15.598Z,19.15
2022-12-16T07:21:55.685Z,18.96
2022-12-16T07:27:36.259Z,18.80
2022-12-16T07:33:33.733Z,18.65
2022-12-16T07:39:14.118Z,18.67
2022-12-16T07:44:54.108Z,18.89
2022-12-16T07:50:34.695Z,19.13
2022-12-16T07:56:14.869Z,19.26
2022-12-16T08:01:55.383Z,19.26
2022-12-16T08:07:35.587Z,19.24
2022-12-16T08:13:25.581Z,19.22
2022-12-16T08:19:10.732Z,19.16
2022-12-16T08:24:53.526Z,19.09
2022-12-16T08:30:36.434Z,19.01
2022-12-16T08:36:17.886Z,18.95
2022-12-16T08:41:58.001Z,19.07
2022-12-16T08:47:41.064Z,19.28
2022-12-16T08:53:21.245Z,19.53
2022-12-16T08:59:01.217Z,19.73
2022-12-16T09:04:41.756Z,19.80
2022-12-16T09:10:40.800Z,19.83
2022-12-16T09:16:21.042Z,19.84
2022-12-16T09:22:01.431Z,19.89
2022-12-16T09:27:41.768Z,19.89
2022-12-16T09:33:22.100Z,19.88
2022-12-16T09:39:02.159Z,19.84
2022-12-16T09:45:01.175Z,19.92
2022-12-16T09:50:47.037Z,19.97
2022-12-16T09:56:36.313Z,20.02
2022-12-16T10:02:16.885Z,20.10
2022-12-16T10:08:04.803Z,20.22
2022-12-16T10:13:58.551Z,20.31
2022-12-16T10:19:41.539Z,20.33
2022-12-16T10:25:30.235Z,20.34
2022-12-16T10:31:10.964Z,20.33
2022-12-16T10:36:53.957Z,20.29
2022-12-16T10:42:46.701Z,20.22
2022-12-16T10:48:29.599Z,20.14
2022-12-16T10:54:10.735Z,20.10
2022-12-16T10:59:57.582Z,20.07
2022-12-16T11:05:47.712Z,20.02
2022-12-16T11:11:41.621Z,19.97
2022-12-16T11:17:43.972Z,19.88
2022-12-16T11:23:44.267Z,19.78
2022-12-16T11:29:35.862Z,19.66
2022-12-16T11:35:19.565Z,19.54
2022-12-16T11:41:01.071Z,19.48
2022-12-16T11:46:45.858Z,19.38
2022-12-16T11:52:37.280Z,19.29
2022-12-16T11:58:31.749Z,19.18
2022-12-16T12:04:12.331Z,19.05
2022-12-16T12:10:00.038Z,18.97
2022-12-16T12:15:49.232Z,18.91
2022-12-16T12:21:35.628Z,18.83
2022-12-16T12:27:39.291Z,18.77
2022-12-16T12:33:51.728Z,18.71
2022-12-16T12:39:39.009Z,18.62
2022-12-16T12:45:42.291Z,18.67
2022-12-16T12:51:31.063Z,19.01
2022-12-16T12:57:12.697Z,19.54
2022-12-16T13:03:15.912Z,20.07
2022-12-16T13:08:56.468Z,20.51
2022-12-16T13:14:51.900Z,20.83
2022-12-16T13:20:59.620Z,21.02
2022-12-16T13:26:51.156Z,21.03
2022-12-16T13:32:38.683Z,20.92
2022-12-16T13:38:25.195Z,20.73
2022-12-16T13:44:15.892Z,20.53
2022-12-16T13:49:56.181Z,20.32
2022-12-16T13:55:42.328Z,20.12
2022-12-16T14:01:31.825Z,19.96
2022-12-16T14:07:12.511Z,19.81
2022-12-16T14:12:55.959Z,19.72
2022-12-16T14:18:47.609Z,19.61
2022-12-16T14:24:41.295Z,19.49
2022-12-16T14:30:33.554Z,19.38
2022-12-16T14:36:13.698Z,19.27
2022-12-16T14:41:53.873Z,19.19
2022-12-16T14:47:36.732Z,19.11
2022-12-16T14:53:50.113Z,19.02
2022-12-16T14:59:38.838Z,18.92
2022-12-16T15:05:19.736Z,18.86
2022-12-16T15:11:00.257Z,18.80
2022-12-16T15:16:49.357Z,18.75
2022-12-16T15:22:36.055Z,18.68
2022-12-16T15:28:16.280Z,18.73
2022-12-16T15:33:57.765Z,18.94
2022-12-16T15:39:56.170Z,19.34
2022-12-16T15:45:39.239Z,19.84
2022-12-16T15:51:19.285Z,20.40
2022-12-16T15:57:04.528Z,20.88
2022-12-16T16:02:48.287Z,21.18
2022-12-16T16:08:29.409Z,21.29
2022-12-16T16:14:14.111Z,21.23
2022-12-16T16:20:00.170Z,21.09
2022-12-16T16:25:44.009Z,20.86
2022-12-16T16:31:32.036Z,20.66
2022-12-16T16:37:15.093Z,20.44
2022-12-16T16:42:55.018Z,20.24
2022-12-16T16:48:37.155Z,20.08
2022-12-16T16:54:17.676Z,19.91
2022-12-16T16:59:57.924Z,19.76
2022-12-16T17:05:38.431Z,19.62
2022-12-16T17:11:19.036Z,19.49
2022-12-16T17:17:02.057Z,19.35
2022-12-16T17:22:42.669Z,19.22
2022-12-16T17:28:23.864Z,19.13
2022-12-16T17:34:04.010Z,19.06
2022-12-16T17:39:44.592Z,19.01
2022-12-16T17:45:28.246Z,18.97
2022-12-16T17:51:08.232Z,18.95
2022-12-16T17:56:48.422Z,18.93
2022-12-16T18:02:31.498Z,18.95
2022-12-16T18:08:11.898Z,19.18
2022-12-16T18:13:51.910Z,19.45
2022-12-16T18:19:34.540Z,19.75
2022-12-16T18:25:15.101Z,19.95
2022-12-16T18:30:56.157Z,20.18
2022-12-16T18:36:36.654Z,20.35
2022-12-16T18:42:16.724Z,20.43
2022-12-16T18:47:57.105Z,20.44
2022-12-16T18:53:37.856Z,20.38
2022-12-16T18:59:18.066Z,20.26
2022-12-16T19:04:58.647Z,20.16
2022-12-16T19:10:38.572Z,20.06
2022-12-16T19:16:19.124Z,19.99
2022-12-16T19:21:59.776Z,19.92
2022-12-16T19:27:39.826Z,20.02
2022-12-16T19:33:20.491Z,20.20
2022-12-16T19:39:00.436Z,20.44
2022-12-16T19:44:40.405Z,20.70
2022-12-16T19:50:21.081Z,20.92
2022-12-16T19:56:01.706Z,21.14
2022-12-16T20:01:41.591Z,21.27
2022-12-16T20:07:23.386Z,21.40
2022-12-16T20:13:03.485Z,21.51
2022-12-16T20:18:43.554Z,21.53
2022-12-16T20:24:24.187Z,21.45
2022-12-16T20:30:04.675Z,21.30
2022-12-16T20:35:45.095Z,21.11
2022-12-16T20:41:25.640Z,20.96
2022-12-16T20:47:06.528Z,20.77
2022-12-16T20:52:47.492Z,20.63
2022-12-16T20:58:27.946Z,20.47
2022-12-16T21:04:08.683Z,20.38
2022-12-16T21:09:49.660Z,20.32
2022-12-16T21:15:30.148Z,20.24
2022-12-16T21:21:14.360Z,20.17
2022-12-16T21:26:54.678Z,20.08
2022-12-16T21:32:41.007Z,19.99
2022-12-16T21:38:31.294Z,19.94
2022-12-16T21:44:11.299Z,19.84
2022-12-16T21:49:51.743Z,19.79
2022-12-16T21:55:32.403Z,19.71
2022-12-16T22:01:16.419Z,19.57
2022-12-16T22:07:10.490Z,19.45
2022-12-16T22:12:56.309Z,19.34
2022-12-16T22:18:39.443Z,19.27
2022-12-16T22:24:19.691Z,19.16
2022-12-16T22:30:00.266Z,19.08
2022-12-16T22:35:40.787Z,19.01
2022-12-16T22:41:22.556Z,18.92
2022-12-16T22:47:02.692Z,18.87
2022-12-16T22:52:42.980Z,18.81
2022-12-16T22:58:30.329Z,18.75
2022-12-16T23:04:10.604Z,18.68
2022-12-16T23:09:50.952Z,18.63
2022-12-16T23:15:33.853Z,18.58
2022-12-16T23:21:14.017Z,18.53
2022-12-16T23:26:54.075Z,18.47
2022-12-16T23:32:36.626Z,18.41
2022-12-16T23:38:24.890Z,18.40
2022-12-16T23:44:05.475Z,18.33
2022-12-16T23:49:45.827Z,18.29
2022-12-16T23:55:26.494Z,18.25
